首页
METAR-TAF:

METAR-TAF

机场 :

汉诺威-朗根哈根机场

汉诺威, 德国

纬度: 52-28N, 经度: 009-41E, 海拔: 56米

当前天气观测

该预报发布于26分钟前的21:20 UTC
风速4节,风向北转西北
温度 -2°C
湿度 59%
气压 1033 hPa
能见度10公里或以上
1500米以下无云,无积雨云

METAR: EDDV 292120Z 33004KT CAVOK M02/M09 Q1033

时间: 23:46 (21:46 UTC)

预报

该预报发布于4小时和46分钟前的17:00 UTC
预报有效从29日的 18点(UTC)到 30日的 18点(UTC)
风速15节,风向北转东北,有时为25节阵风
能见度10公里或以上
散云层高于4000英尺
成为
从 29日的 18点(UTC)到 29日的 20点(UTC)
风速7节,风向北转东北
成为
从 29日的 22点(UTC)到 30日的 01点(UTC)
风速3节,风向多变
成为
从 30日的 06点(UTC)到 30日的 08点(UTC)
风速10节,风向西
短暂存在
从 30日的 08点(UTC)到 30日的 13点(UTC)
能見度: 3000
少量云层高于400英尺
多云层高于900英尺
小雪, 雨
几率 30% :
短暂存在
从 30日的 14点(UTC)到 30日的 17点(UTC)
能見度: 4500
多云层高于1400英尺, 积雨云.
小阵雨

TAF: EDDV 291700Z 2918/3018 02015G25KT 9999 SCT040 BECMG 2918/2920 02007KT BECMG 2922/3001 VRB03KT BECMG 3006/3008 26010KT TEMPO 3008/3013 3000 -SNRA FEW004 BKN009 PROB30 TEMPO 3014/3017 4500 -SHRA BKN014CB

超过4000个机场的气象观测和天气预报(METAR&TAF报告)。

可查询的气象台以黄色和红色小点在地图上表示。

将鼠标移到小点上方,可查看气象台名称。

然后点击查看天气观测和预报。

如需切换地图:点击带黑十字的绿色按钮放大地图;点击带横线的绿色按钮缩小地图;或者点击绿色箭头查看邻近地区的地图。


METAR-TAF: